Time;durP1;ratioP1;P1;durP2;ratioP2;P2;SDS_P1;SDS_P2;PMS_P1;PMS_P2;Temp;Humidity;BMP_temperature;BMP_pressure;BME280_temperature;BME280_humidity;BME280_pressure;Samples;Min_cycle;Max_cycle;Signal;HPM_P1;HPM_P2
2023/02/20 00:00:41;;;;;;;2.17;1.80;;;10.20;99.90;;;;;;4936197;29;20420;-73
2023/02/20 00:03:12;;;;;;;2.40;2.03;;;10.20;99.90;;;;;;4935447;29;20490;-73
2023/02/20 00:05:41;;;;;;;2.77;2.10;;;10.20;99.90;;;;;;4937671;29;20448;-73
2023/02/20 00:08:11;;;;;;;5.43;2.40;;;10.20;99.90;;;;;;4951904;28;20981;-73
2023/02/20 00:10:37;;;;;;;2.97;2.67;;;10.20;99.90;;;;;;4974840;28;20407;-73
2023/02/20 00:13:06;;;;;;;2.70;2.23;;;10.20;99.90;;;;;;4946300;29;20538;-72
2023/02/20 00:15:32;;;;;;;2.53;2.33;;;10.10;99.90;;;;;;4955568;29;20811;-73
2023/02/20 00:17:58;;;;;;;3.97;2.93;;;10.10;99.90;;;;;;4967213;28;20460;-73
2023/02/20 00:20:29;;;;;;;3.70;2.70;;;10.10;99.90;;;;;;4975302;28;20519;-73
2023/02/20 00:22:57;;;;;;;3.20;2.50;;;10.10;99.90;;;;;;4957712;28;20449;-73
2023/02/20 00:25:23;;;;;;;5.80;2.93;;;10.10;99.90;;;;;;4959666;28;20455;-73
2023/02/20 00:27:51;;;;;;;4.50;2.90;;;10.10;99.90;;;;;;4958246;28;20547;-72
2023/02/20 00:30:23;;;;;;;5.23;3.23;;;10.10;99.90;;;;;;4959534;28;20471;-72
2023/02/20 00:32:51;;;;;;;4.30;2.83;;;10.10;99.90;;;;;;4935601;28;20545;-73
2023/02/20 00:35:21;;;;;;;6.27;3.10;;;10.10;99.90;;;;;;4941119;28;20418;-73
2023/02/20 00:37:47;;;;;;;5.07;3.40;;;10.10;99.90;;;;;;4939074;29;20477;-73
2023/02/20 00:40:15;;;;;;;6.07;3.70;;;10.10;99.90;;;;;;4938811;29;20442;-73
2023/02/20 00:42:41;;;;;;;5.10;2.87;;;10.00;99.90;;;;;;4923649;29;20490;-72
2023/02/20 00:45:08;;;;;;;4.00;3.37;;;10.00;99.90;;;;;;4938758;29;20438;-73
2023/02/20 00:47:38;;;;;;;4.40;3.43;;;10.00;99.90;;;;;;4938828;29;20517;-73
2023/02/20 00:50:09;;;;;;;4.27;3.20;;;10.00;99.90;;;;;;4938653;29;20453;-73
2023/02/20 00:52:39;;;;;;;5.13;3.53;;;10.00;99.90;;;;;;4947053;28;20459;-73
2023/02/20 00:55:08;;;;;;;5.10;3.30;;;10.00;99.90;;;;;;4944326;28;20454;-73
2023/02/20 00:57:39;;;;;;;5.43;3.70;;;10.00;99.90;;;;;;4938569;29;20490;-73
2023/02/20 01:00:10;;;;;;;5.63;3.60;;;10.00;99.90;;;;;;4939133;28;20530;-73
2023/02/20 01:02:37;;;;;;;5.53;3.80;;;10.00;99.90;;;;;;4955648;28;20521;-73
2023/02/20 01:05:06;;;;;;;5.80;4.20;;;9.90;99.90;;;;;;4959461;28;20486;-73
2023/02/20 01:07:32;;;;;;;5.60;4.40;;;9.90;99.90;;;;;;4957654;28;20455;-73
2023/02/20 01:09:58;;;;;;;6.17;4.13;;;9.90;99.90;;;;;;4939305;28;20461;-73
2023/02/20 01:12:26;;;;;;;5.43;4.30;;;9.90;99.90;;;;;;4943685;28;20454;-73
2023/02/20 01:14:55;;;;;;;8.63;5.23;;;9.90;99.90;;;;;;4970938;28;20518;-73
2023/02/20 01:17:21;;;;;;;7.03;5.00;;;9.90;99.90;;;;;;4937983;29;20477;-73
2023/02/20 01:19:52;;;;;;;6.90;4.47;;;9.90;99.90;;;;;;4952979;28;20447;-73
2023/02/20 01:22:19;;;;;;;5.53;4.30;;;9.90;99.90;;;;;;4958941;28;20458;-73
2023/02/20 01:24:50;;;;;;;8.20;5.07;;;9.90;99.90;;;;;;4963960;28;20469;-73
2023/02/20 01:27:19;;;;;;;8.07;4.70;;;9.90;99.90;;;;;;4944974;28;20585;-73
2023/02/20 01:29:48;;;;;;;6.40;4.93;;;9.90;99.90;;;;;;4939373;28;20450;-73
2023/02/20 01:32:16;;;;;;;5.77;4.80;;;9.80;99.90;;;;;;4950002;29;20481;-73
2023/02/20 01:34:45;;;;;;;7.50;4.37;;;9.80;99.90;;;;;;4936278;28;20424;-73
2023/02/20 01:37:14;;;;;;;8.90;6.07;;;9.80;99.90;;;;;;4936156;29;20837;-73
2023/02/20 01:39:40;;;;;;;6.50;5.47;;;9.80;99.90;;;;;;4940010;28;20869;-73
2023/02/20 01:42:12;;;;;;;7.70;5.67;;;9.80;99.90;;;;;;4940237;28;20517;-73
2023/02/20 01:44:41;;;;;;;10.03;6.07;;;9.80;99.90;;;;;;4957051;28;20410;-73
2023/02/20 01:47:08;;;;;;;10.23;6.73;;;9.80;99.90;;;;;;4972447;28;20468;-73
2023/02/20 01:49:36;;;;;;;6.77;4.77;;;9.80;99.90;;;;;;4941106;28;20453;-73
2023/02/20 01:52:26;;;;;;;7.77;5.10;;;9.80;99.90;;;;;;4963123;28;20462;-73
2023/02/20 01:55:04;;;;;;;9.20;5.33;;;9.80;99.90;;;;;;4954642;28;20559;-73
2023/02/20 01:57:33;;;;;;;8.13;5.40;;;9.80;99.90;;;;;;4928807;29;20454;-72
2023/02/20 02:00:08;;;;;;;13.40;5.67;;;9.80;99.90;;;;;;4928060;29;20415;-73
2023/02/20 02:02:44;;;;;;;6.87;5.20;;;9.80;99.90;;;;;;4961800;28;20963;-73
2023/02/20 02:05:11;;;;;;;8.73;5.83;;;9.80;99.90;;;;;;4941045;28;20572;-73
2023/02/20 02:07:39;;;;;;;8.20;5.60;;;9.70;99.90;;;;;;4939663;28;20450;-73
2023/02/20 02:10:12;;;;;;;7.60;5.50;;;9.70;99.90;;;;;;4972301;28;20441;-73
2023/02/20 02:12:41;;;;;;;8.80;5.60;;;9.70;99.90;;;;;;4936198;28;20981;-73
2023/02/20 02:15:21;;;;;;;8.53;6.10;;;9.70;99.90;;;;;;4935465;29;20450;-73
2023/02/20 02:18:12;;;;;;;7.83;5.90;;;9.70;99.90;;;;;;4954591;29;20434;-73
2023/02/20 02:21:09;;;;;;;6.80;5.40;;;9.70;99.90;;;;;;4962707;28;20437;-72
2023/02/20 02:23:56;;;;;;;7.83;5.73;;;9.70;99.90;;;;;;4945452;28;20453;-73
2023/02/20 02:26:52;;;;;;;8.43;5.80;;;9.70;99.90;;;;;;4923050;28;20497;-73
2023/02/20 02:29:40;;;;;;;9.30;6.30;;;9.70;99.90;;;;;;4924514;28;20460;-73
2023/02/20 02:32:30;;;;;;;9.10;6.00;;;9.70;99.90;;;;;;4928248;28;20458;-73
2023/02/20 02:35:26;;;;;;;8.70;6.63;;;9.70;99.90;;;;;;4955496;28;20414;-73
2023/02/20 02:38:24;;;;;;;8.70;6.13;;;9.70;99.90;;;;;;4929673;29;20482;-72
2023/02/20 02:41:05;;;;;;;12.00;6.93;;;9.60;99.90;;;;;;4929283;28;20524;-73
2023/02/20 02:43:52;;;;;;;10.20;6.47;;;9.60;99.90;;;;;;4940289;28;20969;-73
2023/02/20 02:46:36;;;;;;;10.90;6.80;;;9.60;99.90;;;;;;4944074;28;20552;-73
2023/02/20 02:49:04;;;;;;;10.17;7.07;;;9.60;99.90;;;;;;4972078;28;20412;-73
2023/02/20 02:51:36;;;;;;;8.53;6.63;;;9.60;99.90;;;;;;4923165;29;21075;-73
2023/02/20 02:54:12;;;;;;;11.33;7.50;;;9.60;99.90;;;;;;4932967;29;20451;-73
2023/02/20 02:56:44;;;;;;;11.53;7.63;;;9.60;99.90;;;;;;4922289;29;20559;-73
2023/02/20 02:59:13;;;;;;;11.23;7.37;;;9.60;99.90;;;;;;4953934;28;20449;-73
2023/02/20 03:01:46;;;;;;;9.90;6.90;;;9.60;99.90;;;;;;4968694;28;20436;-73
2023/02/20 03:04:22;;;;;;;11.13;7.33;;;9.60;99.90;;;;;;4955226;28;20417;-72
2023/02/20 03:06:54;;;;;;;10.40;7.40;;;9.60;99.90;;;;;;4944516;28;20450;-73
2023/02/20 03:09:27;;;;;;;11.33;7.33;;;9.60;99.90;;;;;;4973036;28;20774;-73
2023/02/20 03:11:58;;;;;;;11.17;7.20;;;9.60;99.90;;;;;;4966197;28;20552;-73
2023/02/20 03:17:35;;;;;;;10.17;7.30;;;9.50;99.90;;;;;;4941892;28;21073;-73
2023/02/20 03:20:10;;;;;;;8.67;7.00;;;9.60;99.90;;;;;;4958449;28;20402;-73
2023/02/20 03:22:54;;;;;;;10.93;7.80;;;9.50;99.90;;;;;;4949137;29;21043;-73
2023/02/20 03:25:21;;;;;;;10.33;7.03;;;9.50;99.90;;;;;;4939809;29;20457;-73
2023/02/20 03:27:58;;;;;;;11.50;7.63;;;9.50;99.90;;;;;;4956591;28;20465;-73
2023/02/20 03:30:56;;;;;;;11.87;7.40;;;9.50;99.90;;;;;;4955002;28;20824;-73
2023/02/20 03:45:09;;;;;;;10.80;7.47;;;9.40;99.90;;;;;;4940234;29;20406;-73
2023/02/20 03:47:43;;;;;;;9.30;6.80;;;9.50;99.90;;;;;;4954015;28;20541;-73
2023/02/20 03:50:14;;;;;;;10.13;7.43;;;9.40;99.90;;;;;;4958975;28;20436;-72
2023/02/20 03:52:43;;;;;;;8.93;6.50;;;9.50;99.90;;;;;;4942587;28;20492;-73
2023/02/20 03:55:14;;;;;;;12.80;8.07;;;9.40;99.90;;;;;;4942748;28;20500;-73
2023/02/20 03:57:50;;;;;;;10.83;7.83;;;9.40;99.90;;;;;;4941186;29;20492;-73
2023/02/20 04:00:20;;;;;;;8.03;6.33;;;9.40;99.90;;;;;;4936395;29;21054;-73
2023/02/20 04:03:02;;;;;;;9.73;6.30;;;9.40;99.90;;;;;;4937137;28;20441;-73
2023/02/20 04:05:40;;;;;;;10.47;6.40;;;9.40;99.90;;;;;;4958514;28;20414;-73
2023/02/20 04:08:15;;;;;;;13.13;7.37;;;9.40;99.90;;;;;;4940850;28;20467;-73
2023/02/20 04:11:03;;;;;;;7.27;5.90;;;9.40;99.90;;;;;;4957497;28;20815;-73
2023/02/20 04:13:31;;;;;;;10.40;6.50;;;9.40;99.90;;;;;;4941040;28;20904;-73
2023/02/20 04:15:59;;;;;;;10.07;6.90;;;9.40;99.90;;;;;;4923518;29;20460;-73
2023/02/20 04:18:27;;;;;;;11.67;7.40;;;9.40;99.90;;;;;;4939550;29;20438;-73
2023/02/20 04:20:57;;;;;;;11.47;7.80;;;9.40;99.90;;;;;;4938486;29;20893;-73
2023/02/20 04:23:36;;;;;;;10.57;7.20;;;9.40;99.90;;;;;;4923377;29;20963;-73
2023/02/20 04:26:18;;;;;;;11.07;5.80;;;9.40;99.90;;;;;;4943608;28;21019;-73
2023/02/20 04:28:48;;;;;;;10.40;5.83;;;9.30;99.90;;;;;;4958016;28;20428;-72
2023/02/20 04:31:20;;;;;;;10.07;6.63;;;9.30;99.90;;;;;;4935779;28;20524;-73
2023/02/20 04:33:49;;;;;;;11.70;7.60;;;9.40;99.90;;;;;;4967476;28;20524;-73
2023/02/20 04:36:20;;;;;;;10.03;6.50;;;9.30;99.90;;;;;;4942549;28;20426;-73
2023/02/20 04:38:47;;;;;;;10.37;6.67;;;9.40;99.90;;;;;;4954781;28;20446;-73
2023/02/20 04:41:19;;;;;;;9.50;6.30;;;9.30;99.90;;;;;;4938962;29;20442;-72
2023/02/20 04:43:49;;;;;;;8.70;6.07;;;9.30;99.90;;;;;;4921333;29;20775;-73
2023/02/20 04:46:15;;;;;;;10.10;5.97;;;9.30;99.90;;;;;;4936934;28;20453;-72
2023/02/20 04:48:44;;;;;;;7.63;5.50;;;9.30;99.90;;;;;;4923267;28;20517;-73
2023/02/20 04:51:10;;;;;;;11.20;6.33;;;9.30;99.90;;;;;;4954635;28;20523;-73
2023/02/20 04:53:36;;;;;;;9.10;5.53;;;9.30;99.90;;;;;;4939645;29;20439;-73
2023/02/20 04:56:04;;;;;;;8.80;5.47;;;9.30;99.90;;;;;;4933893;28;20802;-73
2023/02/20 04:58:36;;;;;;;9.70;5.47;;;9.30;99.90;;;;;;4951997;28;20446;-72
2023/02/20 05:01:11;;;;;;;7.80;5.20;;;9.30;99.90;;;;;;4947977;29;20478;-73
2023/02/20 05:03:37;;;;;;;8.10;5.83;;;9.30;99.90;;;;;;4936896;29;20485;-73
2023/02/20 05:06:07;;;;;;;9.67;5.27;;;9.30;99.90;;;;;;4937201;29;20423;-73
2023/02/20 05:08:38;;;;;;;8.00;6.37;;;9.20;99.90;;;;;;4954187;29;20486;-72
2023/02/20 05:11:04;;;;;;;8.23;6.00;;;9.20;99.90;;;;;;4934393;28;20441;-73
2023/02/20 05:13:30;;;;;;;9.47;4.93;;;9.20;99.90;;;;;;4956853;28;21168;-72
2023/02/20 05:15:58;;;;;;;9.23;4.97;;;9.20;99.90;;;;;;4973771;28;20461;-72
2023/02/20 05:18:26;;;;;;;8.47;5.10;;;9.20;99.90;;;;;;4956627;28;20462;-73
2023/02/20 05:23:38;;;;;;;8.13;5.17;;;9.20;99.90;;;;;;4973776;28;20440;-73
2023/02/20 05:26:19;;;;;;;6.80;4.77;;;9.20;99.90;;;;;;4940669;28;20981;-72
2023/02/20 05:28:47;;;;;;;8.80;4.87;;;9.20;99.90;;;;;;4953300;29;20422;-72
2023/02/20 05:31:13;;;;;;;7.47;5.00;;;9.20;99.90;;;;;;4933567;29;20450;-73
2023/02/20 05:33:41;;;;;;;6.67;4.37;;;9.20;99.90;;;;;;4953025;28;20444;-73
2023/02/20 05:36:10;;;;;;;8.13;5.13;;;9.20;99.90;;;;;;4957124;28;20401;-73
2023/02/20 05:38:36;;;;;;;10.00;4.83;;;9.20;99.90;;;;;;4942365;29;20445;-72
2023/02/20 05:41:02;;;;;;;6.50;4.43;;;9.20;99.90;;;;;;4937616;28;20415;-73
2023/02/20 05:43:28;;;;;;;7.17;4.90;;;9.20;99.90;;;;;;4937796;29;20518;-73
2023/02/20 05:45:54;;;;;;;7.03;4.63;;;9.10;99.90;;;;;;4963851;28;20531;-73
2023/02/20 05:48:23;;;;;;;8.23;4.47;;;9.10;99.90;;;;;;4955331;28;20458;-73
2023/02/20 05:50:49;;;;;;;10.20;4.73;;;9.10;99.90;;;;;;4956761;28;20483;-73
2023/02/20 05:53:20;;;;;;;8.00;4.80;;;9.10;99.90;;;;;;4969114;28;21078;-73
2023/02/20 05:55:46;;;;;;;9.87;4.60;;;9.10;99.90;;;;;;4951405;28;20407;-73
2023/02/20 05:58:14;;;;;;;7.80;5.10;;;9.10;99.90;;;;;;4936878;28;20549;-73
2023/02/20 06:00:40;;;;;;;8.90;4.37;;;9.10;99.90;;;;;;4956773;28;20513;-73
2023/02/20 06:03:08;;;;;;;7.97;4.73;;;9.10;99.90;;;;;;4971864;28;20405;-73
2023/02/20 06:05:35;;;;;;;6.60;4.30;;;9.10;99.90;;;;;;4937803;29;20433;-73
2023/02/20 06:08:01;;;;;;;10.57;4.57;;;9.10;99.90;;;;;;4953664;28;20450;-73
2023/02/20 06:10:27;;;;;;;7.93;4.73;;;9.10;99.90;;;;;;5037893;23;20527;-69
2023/02/20 06:12:53;;;;;;;6.50;3.97;;;9.10;99.90;;;;;;4992790;28;20949;-70
2023/02/20 06:15:21;;;;;;;8.43;4.63;;;9.10;99.90;;;;;;4977222;28;20471;-70
2023/02/20 06:17:53;;;;;;;13.43;5.50;;;9.00;99.90;;;;;;4994358;28;20212;-70
2023/02/20 06:20:21;;;;;;;8.23;5.10;;;9.00;99.90;;;;;;4993156;28;20401;-70
2023/02/20 06:22:50;;;;;;;8.27;5.33;;;9.00;99.90;;;;;;4993189;28;20486;-70
2023/02/20 06:25:18;;;;;;;6.43;5.33;;;9.00;99.90;;;;;;4994149;28;20770;-70
2023/02/20 06:27:47;;;;;;;11.40;6.27;;;9.00;99.90;;;;;;4992948;28;20583;-70
2023/02/20 06:30:15;;;;;;;7.40;5.40;;;9.00;99.90;;;;;;5009043;28;20439;-70
2023/02/20 06:32:46;;;;;;;8.00;5.67;;;9.00;99.90;;;;;;4985122;28;20458;-70
2023/02/20 06:35:17;;;;;;;11.03;6.50;;;9.00;99.90;;;;;;4996164;28;20483;-70
2023/02/20 06:37:46;;;;;;;12.30;5.90;;;9.00;99.90;;;;;;5013568;28;20438;-70
2023/02/20 06:40:17;;;;;;;9.27;6.50;;;9.00;99.90;;;;;;5013586;28;20494;-70
2023/02/20 06:42:48;;;;;;;11.87;6.60;;;9.00;99.90;;;;;;5012609;28;20420;-70
2023/02/20 06:45:14;;;;;;;10.07;7.30;;;9.00;99.90;;;;;;4979953;28;20514;-70
2023/02/20 06:47:42;;;;;;;13.00;6.93;;;9.00;99.90;;;;;;4995840;28;20876;-70
2023/02/20 06:50:10;;;;;;;13.50;7.00;;;9.00;99.90;;;;;;4980154;28;20428;-70
2023/02/20 06:52:36;;;;;;;10.97;7.03;;;8.90;99.90;;;;;;4979567;28;20486;-70
2023/02/20 06:55:03;;;;;;;8.73;6.37;;;8.90;99.90;;;;;;4996221;28;20517;-70
2023/02/20 06:57:33;;;;;;;15.13;7.87;;;8.90;99.90;;;;;;4979902;28;20482;-70
2023/02/20 07:00:01;;;;;;;13.10;7.93;;;8.90;99.90;;;;;;5012414;28;20461;-71
2023/02/20 07:02:30;;;;;;;17.30;8.07;;;8.90;99.90;;;;;;5013366;28;20465;-70
2023/02/20 07:04:58;;;;;;;12.73;7.30;;;8.90;99.90;;;;;;4995976;28;20405;-70
2023/02/20 07:07:24;;;;;;;16.50;8.03;;;8.90;99.90;;;;;;5013380;28;20442;-70
2023/02/20 07:09:50;;;;;;;12.87;8.50;;;8.90;99.90;;;;;;4996100;28;20430;-70
2023/02/20 07:12:16;;;;;;;11.87;8.77;;;8.90;99.90;;;;;;4995771;28;20837;-70
2023/02/20 07:14:42;;;;;;;13.43;9.00;;;8.90;99.90;;;;;;4995855;28;20474;-69
2023/02/20 07:17:12;;;;;;;13.97;8.13;;;8.90;99.90;;;;;;5013228;28;20432;-70
2023/02/20 07:19:38;;;;;;;12.40;8.80;;;8.90;99.90;;;;;;4995965;28;20428;-70
2023/02/20 07:22:04;;;;;;;16.30;9.00;;;8.90;99.90;;;;;;4979714;28;20445;-70
2023/02/20 07:24:30;;;;;;;14.20;8.33;;;8.90;99.90;;;;;;4994335;28;20786;-70
2023/02/20 07:26:58;;;;;;;15.40;10.23;;;8.90;99.90;;;;;;4992394;28;20446;-70
2023/02/20 07:29:26;;;;;;;13.43;9.30;;;8.90;99.90;;;;;;4992555;28;20929;-70
2023/02/20 07:31:53;;;;;;;10.60;9.03;;;8.90;99.90;;;;;;4993451;28;20824;-70
2023/02/20 07:34:21;;;;;;;18.40;9.20;;;8.90;99.90;;;;;;4993838;28;20502;-71
2023/02/20 07:36:49;;;;;;;14.40;9.10;;;8.90;99.90;;;;;;4992443;28;21036;-70
2023/02/20 07:39:18;;;;;;;17.47;8.60;;;8.80;99.90;;;;;;4993607;28;20822;-70
2023/02/20 07:41:51;;;;;;;12.03;9.20;;;8.80;99.90;;;;;;4993578;28;20902;-70
2023/02/20 07:44:36;;;;;;;15.47;9.53;;;8.80;99.90;;;;;;4992516;28;20867;-70
2023/02/20 07:47:02;;;;;;;17.30;10.33;;;8.80;99.90;;;;;;4992164;28;20471;-70
2023/02/20 07:49:28;;;;;;;16.47;10.70;;;8.80;99.90;;;;;;4993303;28;20443;-70
2023/02/20 07:51:59;;;;;;;12.60;9.60;;;8.80;99.90;;;;;;5008443;28;21004;-70
2023/02/20 07:54:27;;;;;;;12.17;9.20;;;8.80;99.90;;;;;;4992346;28;20518;-70
2023/02/20 07:56:58;;;;;;;13.70;9.30;;;8.80;99.90;;;;;;5008023;28;20451;-70
2023/02/20 07:59:26;;;;;;;15.37;10.00;;;8.80;99.90;;;;;;4992272;28;20764;-70
2023/02/20 08:01:52;;;;;;;15.57;10.90;;;8.80;99.90;;;;;;4993319;28;20959;-70
2023/02/20 08:04:18;;;;;;;16.50;9.03;;;8.80;99.90;;;;;;4993325;28;20399;-70
2023/02/20 08:06:46;;;;;;;16.57;9.03;;;8.80;99.90;;;;;;4995489;28;20447;-70
2023/02/20 08:09:12;;;;;;;13.80;9.60;;;8.80;99.90;;;;;;4996747;28;20417;-70
2023/02/20 08:11:41;;;;;;;15.50;10.50;;;8.80;99.90;;;;;;4995639;28;20503;-70
2023/02/20 08:14:08;;;;;;;15.70;10.20;;;8.80;99.90;;;;;;4995124;28;20467;-70
2023/02/20 08:16:41;;;;;;;13.93;8.93;;;8.80;99.90;;;;;;4977714;28;20201;-70
2023/02/20 08:19:07;;;;;;;17.00;9.23;;;8.80;99.90;;;;;;4995169;28;20931;-70
2023/02/20 08:21:33;;;;;;;14.27;10.57;;;8.80;99.90;;;;;;4996424;28;20437;-70
2023/02/20 08:24:07;;;;;;;15.17;9.17;;;8.80;99.90;;;;;;4995553;28;20529;-70
2023/02/20 08:26:33;;;;;;;14.93;10.33;;;8.80;99.90;;;;;;4994684;28;20848;-70
2023/02/20 08:29:00;;;;;;;14.97;10.03;;;8.80;99.90;;;;;;5004366;28;20446;-70
2023/02/20 08:31:28;;;;;;;15.90;10.43;;;8.80;99.90;;;;;;4946348;28;20429;-71
2023/02/20 08:33:54;;;;;;;16.67;10.47;;;8.80;99.90;;;;;;4998233;28;20986;-73
2023/02/20 08:36:22;;;;;;;16.43;9.93;;;8.80;99.90;;;;;;4971423;28;20434;-77
2023/02/20 08:38:49;;;;;;;12.37;8.90;;;8.80;99.90;;;;;;4992431;28;20479;-74
2023/02/20 08:41:15;;;;;;;15.17;9.70;;;8.80;99.90;;;;;;4982112;28;20506;-77
2023/02/20 08:43:43;;;;;;;15.07;9.77;;;8.80;99.90;;;;;;4994779;28;20475;-79
2023/02/20 08:46:23;;;;;;;16.37;9.73;;;8.80;99.90;;;;;;4976849;28;20474;-72
2023/02/20 08:48:49;;;;;;;13.17;9.20;;;8.80;99.90;;;;;;4983110;28;20939;-74
2023/02/20 08:51:19;;;;;;;15.17;9.37;;;8.80;99.90;;;;;;4972430;28;20437;-73
2023/02/20 08:53:47;;;;;;;13.10;9.03;;;8.80;99.90;;;;;;4979832;28;20442;-75
2023/02/20 08:56:20;;;;;;;12.00;8.13;;;8.80;99.90;;;;;;4961325;28;20531;-73
2023/02/20 08:58:46;;;;;;;10.80;8.00;;;8.80;99.90;;;;;;4996110;28;20544;-73
2023/02/20 09:01:12;;;;;;;13.70;9.40;;;8.80;99.90;;;;;;4965295;28;20434;-74
2023/02/20 09:03:42;;;;;;;15.10;9.00;;;8.80;99.90;;;;;;4967999;28;20460;-75
2023/02/20 09:06:08;;;;;;;15.73;8.87;;;8.80;99.90;;;;;;4979612;28;20488;-73
2023/02/20 09:08:34;;;;;;;15.87;10.90;;;8.80;99.90;;;;;;4995032;28;20448;-75
2023/02/20 09:11:03;;;;;;;15.07;9.40;;;8.80;99.90;;;;;;4978128;28;20538;-75
2023/02/20 09:13:29;;;;;;;15.17;8.33;;;8.80;99.90;;;;;;4976045;28;20475;-74
2023/02/20 09:15:55;;;;;;;15.10;9.30;;;8.80;99.90;;;;;;4994318;28;20420;-74
2023/02/20 09:18:21;;;;;;;13.30;8.67;;;8.80;99.90;;;;;;4977347;28;20455;-74
2023/02/20 09:20:50;;;;;;;16.47;8.57;;;8.80;99.90;;;;;;4992871;28;20429;-74
2023/02/20 09:23:20;;;;;;;16.80;8.67;;;8.80;99.90;;;;;;4962127;28;20427;-73
2023/02/20 09:25:49;;;;;;;15.87;9.10;;;8.80;99.90;;;;;;4973833;28;20490;-74
2023/02/20 09:28:18;;;;;;;17.20;9.90;;;8.80;99.90;;;;;;4977296;28;21020;-74
2023/02/20 09:30:44;;;;;;;14.87;9.10;;;8.80;99.90;;;;;;4986606;28;20446;-75
2023/02/20 09:33:13;;;;;;;17.63;9.60;;;8.80;99.90;;;;;;4991841;28;20506;-78
2023/02/20 09:35:39;;;;;;;12.80;8.03;;;8.80;99.90;;;;;;4966782;28;20481;-76
2023/02/20 09:38:09;;;;;;;16.40;8.87;;;8.80;99.90;;;;;;4986057;28;20975;-75
2023/02/20 09:40:37;;;;;;;13.10;8.83;;;8.80;99.90;;;;;;4978166;28;20559;-77
2023/02/20 09:43:30;;;;;;;13.57;8.77;;;8.80;99.90;;;;;;4994602;28;20401;-76
2023/02/20 09:46:07;;;;;;;17.20;9.30;;;8.80;99.90;;;;;;4978040;28;20770;-76
2023/02/20 09:49:01;;;;;;;13.30;9.40;;;8.80;99.90;;;;;;4976509;28;20474;-75
2023/02/20 09:51:31;;;;;;;15.50;9.87;;;8.80;99.90;;;;;;4976553;28;21006;-76
2023/02/20 09:54:09;;;;;;;20.03;9.70;;;8.80;99.90;;;;;;4974338;28;20451;-72
2023/02/20 09:56:44;;;;;;;10.73;8.60;;;8.80;99.90;;;;;;4961326;28;20562;-73
2023/02/20 09:59:18;;;;;;;19.50;11.07;;;8.80;99.90;;;;;;4973312;28;20447;-77
2023/02/20 10:01:54;;;;;;;16.50;8.70;;;8.80;99.90;;;;;;4989274;28;20450;-77
2023/02/20 10:04:30;;;;;;;13.70;8.97;;;8.80;99.90;;;;;;4990181;28;20917;-77
2023/02/20 10:07:08;;;;;;;16.37;9.10;;;8.80;99.90;;;;;;4981814;28;21033;-76
2023/02/20 10:09:34;;;;;;;14.93;8.97;;;8.80;99.90;;;;;;4956932;28;20469;-72
2023/02/20 10:13:03;;;;;;;14.40;9.10;;;8.80;99.90;;;;;;4987785;28;20472;-76
2023/02/20 10:15:49;;;;;;;13.43;9.60;;;8.80;99.90;;;;;;4909832;29;20543;-75
2023/02/20 10:18:44;;;;;;;12.20;8.83;;;8.80;99.90;;;;;;4899349;29;20476;-75
2023/02/20 10:21:42;;;;;;;18.37;10.47;;;8.80;99.90;;;;;;4948460;28;20439;-75
2023/02/20 10:24:31;;;;;;;14.80;9.43;;;8.80;99.90;;;;;;4909279;28;20436;-75
2023/02/20 10:27:10;;;;;;;13.33;9.60;;;8.80;99.90;;;;;;4993807;28;20817;-76
2023/02/20 10:29:38;;;;;;;13.27;8.97;;;8.80;99.90;;;;;;4969671;28;20471;-75
2023/02/20 10:32:14;;;;;;;18.63;9.07;;;8.80;99.90;;;;;;4975688;28;20457;-75
2023/02/20 10:35:15;;;;;;;16.40;9.07;;;8.80;99.90;;;;;;4975601;28;20471;-75
2023/02/20 10:37:44;;;;;;;13.70;9.10;;;8.90;99.90;;;;;;4896944;28;20479;-79
2023/02/20 10:40:46;;;;;;;15.27;9.77;;;8.90;99.90;;;;;;4983040;28;20436;-76
2023/02/20 10:43:15;;;;;;;12.30;8.30;;;8.90;99.90;;;;;;4959890;28;20518;-76
2023/02/20 10:45:56;;;;;;;14.47;8.80;;;8.90;99.90;;;;;;4976302;28;20918;-78
2023/02/20 10:48:25;;;;;;;15.00;9.03;;;8.90;99.90;;;;;;4973026;28;20433;-73
2023/02/20 10:51:31;;;;;;;12.20;8.93;;;8.90;99.90;;;;;;4963247;28;20464;-74
2023/02/20 10:54:00;;;;;;;12.57;9.50;;;8.90;99.90;;;;;;5004043;28;20439;-74
2023/02/20 10:56:47;;;;;;;14.80;9.10;;;8.90;99.90;;;;;;4993555;28;20529;-72
2023/02/20 10:59:38;;;;;;;16.30;10.13;;;8.90;99.90;;;;;;5011911;28;20465;-76
2023/02/20 11:02:10;;;;;;;15.17;8.77;;;9.00;99.90;;;;;;4994149;28;20463;-75
2023/02/20 11:04:41;;;;;;;18.70;8.80;;;9.00;99.90;;;;;;4994871;28;20804;-75
2023/02/20 11:07:14;;;;;;;13.70;8.53;;;9.00;99.90;;;;;;4995806;28;20447;-76
2023/02/20 11:09:41;;;;;;;16.03;9.90;;;9.00;99.90;;;;;;4982778;28;20428;-75
2023/02/20 11:12:15;;;;;;;17.87;8.70;;;9.00;99.90;;;;;;4976083;28;20471;-76
2023/02/20 11:14:48;;;;;;;17.60;10.43;;;9.10;99.90;;;;;;4960707;28;20437;-76
2023/02/20 11:17:18;;;;;;;15.03;8.50;;;9.00;99.90;;;;;;4993430;28;20448;-75
2023/02/20 11:19:47;;;;;;;13.07;9.30;;;9.00;99.90;;;;;;4976534;28;21010;-76
2023/02/20 11:22:16;;;;;;;13.93;8.93;;;9.00;99.90;;;;;;4960280;28;20449;-76
2023/02/20 11:24:45;;;;;;;12.23;9.40;;;9.10;99.90;;;;;;4960250;28;20430;-75
2023/02/20 11:27:24;;;;;;;13.53;9.47;;;9.10;99.90;;;;;;4976140;28;21011;-76
2023/02/20 11:30:00;;;;;;;14.50;8.13;;;9.10;99.90;;;;;;4976299;28;20783;-76
2023/02/20 11:32:41;;;;;;;15.87;10.10;;;9.10;99.90;;;;;;4976241;28;20468;-76
2023/02/20 11:35:17;;;;;;;17.60;10.10;;;9.10;99.90;;;;;;4993085;28;20546;-75
2023/02/20 11:37:44;;;;;;;18.83;8.83;;;9.10;99.90;;;;;;4958240;28;20455;-76
2023/02/20 11:40:37;;;;;;;13.80;9.90;;;9.10;99.90;;;;;;4961146;28;20405;-76
2023/02/20 11:43:12;;;;;;;20.33;10.30;;;9.10;99.90;;;;;;4963704;28;20425;-77
2023/02/20 11:45:39;;;;;;;17.20;9.33;;;9.10;99.90;;;;;;4997242;28;20459;-75
2023/02/20 11:48:11;;;;;;;16.57;10.27;;;9.10;99.90;;;;;;4948068;28;20444;-75
2023/02/20 11:50:38;;;;;;;15.50;9.63;;;9.10;99.90;;;;;;4980024;28;20399;-76
2023/02/20 11:53:16;;;;;;;15.43;10.67;;;9.10;99.90;;;;;;4963583;28;20463;-75
2023/02/20 11:55:44;;;;;;;13.27;9.30;;;9.10;99.90;;;;;;4979418;28;20503;-75
2023/02/20 11:58:24;;;;;;;16.33;10.10;;;9.10;99.90;;;;;;4979415;28;20527;-75
2023/02/20 12:00:55;;;;;;;13.63;9.20;;;9.10;99.90;;;;;;4979681;28;20434;-76
2023/02/20 12:03:28;;;;;;;11.50;8.20;;;9.10;99.90;;;;;;4996946;28;20419;-75
2023/02/20 12:05:58;;;;;;;14.10;9.03;;;9.10;99.90;;;;;;4996959;28;20412;-76
2023/02/20 12:08:52;;;;;;;15.13;9.30;;;9.10;99.90;;;;;;4963539;28;20499;-75
2023/02/20 12:11:23;;;;;;;17.27;9.13;;;9.10;99.90;;;;;;4996630;28;20515;-75
2023/02/20 12:13:51;;;;;;;13.03;9.30;;;9.10;99.90;;;;;;4979425;28;20452;-75
2023/02/20 12:16:31;;;;;;;14.60;8.90;;;9.10;99.90;;;;;;4996703;28;20823;-76
2023/02/20 12:19:09;;;;;;;15.80;10.00;;;9.10;99.90;;;;;;4995453;28;20396;-75
2023/02/20 12:21:44;;;;;;;14.23;8.93;;;9.10;99.90;;;;;;4979270;28;20398;-76
2023/02/20 12:24:31;;;;;;;16.63;9.60;;;9.10;99.90;;;;;;4978027;28;20486;-75
2023/02/20 12:27:00;;;;;;;16.87;10.97;;;9.10;99.90;;;;;;4962793;28;20445;-74
2023/02/20 12:29:38;;;;;;;15.90;8.87;;;9.10;99.90;;;;;;4979257;28;20906;-75
2023/02/20 12:32:15;;;;;;;15.03;9.90;;;9.10;99.90;;;;;;4996470;28;20459;-74
2023/02/20 12:35:08;;;;;;;16.20;10.60;;;9.10;99.90;;;;;;4997692;28;20419;-74
2023/02/20 12:37:51;;;;;;;16.70;9.37;;;9.10;99.90;;;;;;4966076;28;20472;-74
2023/02/20 12:40:34;;;;;;;15.83;10.93;;;9.10;99.90;;;;;;4986657;28;20439;-74
2023/02/20 12:43:09;;;;;;;19.33;10.07;;;9.10;99.90;;;;;;4996582;28;20471;-74
2023/02/20 12:45:44;;;;;;;17.53;9.90;;;9.10;99.90;;;;;;4997367;28;20413;-74
2023/02/20 12:48:30;;;;;;;16.27;10.50;;;9.10;99.90;;;;;;4975267;28;20445;-74
2023/02/20 12:51:08;;;;;;;20.17;10.87;;;9.10;99.90;;;;;;4984199;28;21089;-74
2023/02/20 12:53:46;;;;;;;25.27;11.30;;;9.10;99.90;;;;;;5013234;28;20531;-74
2023/02/20 12:56:18;;;;;;;19.97;10.23;;;9.10;99.90;;;;;;4977175;28;20952;-74
2023/02/20 12:58:44;;;;;;;14.20;9.73;;;9.10;99.90;;;;;;4993752;28;20416;-74
2023/02/20 13:01:13;;;;;;;16.67;10.10;;;9.10;99.90;;;;;;5012975;28;20423;-74
2023/02/20 13:03:57;;;;;;;12.40;9.13;;;9.10;99.90;;;;;;4997002;28;20599;-74
2023/02/20 13:06:44;;;;;;;19.73;10.20;;;9.20;99.90;;;;;;5013831;28;20421;-74
2023/02/20 13:09:25;;;;;;;17.37;9.77;;;9.20;99.90;;;;;;5001070;28;20472;-74
2023/02/20 13:12:00;;;;;;;16.80;10.80;;;9.20;99.90;;;;;;4995291;28;20514;-74
2023/02/20 13:15:06;;;;;;;13.70;10.33;;;9.20;99.90;;;;;;5014087;28;20443;-74
2023/02/20 13:18:02;;;;;;;16.53;9.80;;;9.20;99.90;;;;;;4907798;28;20454;-74
2023/02/20 13:20:38;;;;;;;15.87;9.30;;;9.20;99.90;;;;;;4993712;28;20849;-74
2023/02/20 13:23:16;;;;;;;18.40;11.80;;;9.20;99.90;;;;;;4991670;28;20491;-74
2023/02/20 13:25:49;;;;;;;14.13;10.27;;;9.20;99.90;;;;;;4996417;28;20450;-74
2023/02/20 13:28:30;;;;;;;12.40;9.00;;;9.20;99.90;;;;;;4983799;28;20824;-74
2023/02/20 13:31:11;;;;;;;15.40;10.00;;;9.20;99.90;;;;;;4996520;28;20478;-74
2023/02/20 13:33:39;;;;;;;16.17;9.53;;;9.20;99.90;;;;;;4982673;28;20696;-74